sensor_id;sensor_type;location;lat;lon;timestamp;pressure;altitude;pressure_sealevel;temperature;humidity
3132;BME280;62090;52.330;9.104;2023-02-04T09:49:07;103056.56;;;5.87;82.30
3132;BME280;62090;52.330;9.104;2023-02-04T09:51:59;103027.53;;;5.32;83.45
3132;BME280;62090;52.330;9.104;2023-02-04T09:54:32;103066.97;;;5.60;83.50
3132;BME280;62090;52.330;9.104;2023-02-04T09:57:12;103107.28;;;5.79;83.04
3132;BME280;62090;52.330;9.104;2023-02-04T09:59:44;103155.34;;;5.99;83.71
3132;BME280;62090;52.330;9.104;2023-02-04T10:02:20;103156.25;;;6.00;83.51
3132;BME280;62090;52.330;9.104;2023-02-04T10:04:55;103161.81;;;6.06;83.24
3132;BME280;62090;52.330;9.104;2023-02-04T10:07:26;103169.16;;;6.13;83.49
3132;BME280;62090;52.330;9.104;2023-02-04T10:09:58;103174.22;;;6.03;83.43
3132;BME280;62090;52.330;9.104;2023-02-04T10:12:29;103172.16;;;6.09;83.52
3132;BME280;62090;52.330;9.104;2023-02-04T10:14:58;103159.16;;;6.04;83.30
3132;BME280;62090;52.330;9.104;2023-02-04T10:17:29;103105.53;;;5.88;82.05
3132;BME280;62090;52.330;9.104;2023-02-04T10:20:02;103167.75;;;6.06;81.56
3132;BME280;62090;52.330;9.104;2023-02-04T10:22:31;103134.50;;;6.02;81.97
3132;BME280;62090;52.330;9.104;2023-02-04T11:58:38;103090.97;;;6.38;76.54
3132;BME280;62090;52.330;9.104;2023-02-04T12:10:37;103188.59;;;7.08;76.88
3132;BME280;62090;52.330;9.104;2023-02-04T12:30:14;103196.25;;;6.98;77.10
3132;BME280;62090;52.330;9.104;2023-02-04T14:27:33;103159.97;;;6.99;74.59
3132;BME280;62090;52.330;9.104;2023-02-04T14:30:15;103201.25;;;7.30;74.70
3132;BME280;62090;52.330;9.104;2023-02-04T14:32:50;103032.00;;;6.28;75.16
3132;BME280;62090;52.330;9.104;2023-02-04T14:35:25;103135.97;;;6.84;75.84
3132;BME280;62090;52.330;9.104;2023-02-04T14:37:55;103244.75;;;7.34;75.56
3132;BME280;62090;52.330;9.104;2023-02-04T14:41:03;102914.34;;;6.68;70.61
3132;BME280;62090;52.330;9.104;2023-02-04T14:43:47;103160.03;;;7.32;73.17
3132;BME280;62090;52.330;9.104;2023-02-04T14:49:55;103236.13;;;7.32;75.37
3132;BME280;62090;52.330;9.104;2023-02-04T15:21:34;103241.31;;;7.55;73.68
3132;BME280;62090;52.330;9.104;2023-02-04T15:24:08;103252.28;;;7.22;75.97
3132;BME280;62090;52.330;9.104;2023-02-04T15:26:42;103142.19;;;6.55;75.99
3132;BME280;62090;52.330;9.104;2023-02-04T15:29:20;102961.38;;;5.47;76.62
3132;BME280;62090;52.330;9.104;2023-02-04T15:31:54;103056.44;;;6.93;73.48
3132;BME280;62090;52.330;9.104;2023-02-04T15:34:43;103048.53;;;6.35;75.29
3132;BME280;62090;52.330;9.104;2023-02-04T15:37:15;103183.84;;;6.91;76.07
3132;BME280;62090;52.330;9.104;2023-02-04T15:39:45;103186.56;;;6.72;77.23
3132;BME280;62090;52.330;9.104;2023-02-04T15:42:15;103075.09;;;6.18;77.22
3132;BME280;62090;52.330;9.104;2023-02-04T15:44:45;103185.44;;;6.68;77.94
3132;BME280;62090;52.330;9.104;2023-02-04T15:47:17;103129.19;;;6.41;78.15
3132;BME280;62090;52.330;9.104;2023-02-04T15:49:52;103139.81;;;6.47;78.17
3132;BME280;62090;52.330;9.104;2023-02-04T15:52:30;103056.66;;;5.99;77.75
3132;BME280;62090;52.330;9.104;2023-02-04T15:55:03;103238.50;;;6.87;78.70
3132;BME280;62090;52.330;9.104;2023-02-04T15:57:38;102970.38;;;5.24;79.31
3132;BME280;62090;52.330;9.104;2023-02-04T16:00:15;103088.16;;;5.92;79.05
3132;BME280;62090;52.330;9.104;2023-02-04T16:03:00;103238.06;;;6.93;79.18
3132;BME280;62090;52.330;9.104;2023-02-04T16:05:49;103248.50;;;6.86;79.04
3132;BME280;62090;52.330;9.104;2023-02-04T16:08:27;103152.38;;;6.35;78.93
3132;BME280;62090;52.330;9.104;2023-02-04T16:11:07;103262.59;;;6.72;79.14
3132;BME280;62090;52.330;9.104;2023-02-04T16:13:50;103179.22;;;6.33;79.50
3132;BME280;62090;52.330;9.104;2023-02-04T16:16:24;103265.53;;;6.76;79.22
3132;BME280;62090;52.330;9.104;2023-02-04T16:18:57;103038.13;;;5.48;78.91
3132;BME280;62090;52.330;9.104;2023-02-04T16:21:32;103186.19;;;6.35;78.72
3132;BME280;62090;52.330;9.104;2023-02-04T16:24:27;103132.06;;;6.03;79.06
3132;BME280;62090;52.330;9.104;2023-02-04T16:26:57;103194.19;;;6.20;79.10
3132;BME280;62090;52.330;9.104;2023-02-04T16:29:27;103157.88;;;6.09;79.34
3132;BME280;62090;52.330;9.104;2023-02-04T16:31:57;103249.06;;;6.61;79.59
3132;BME280;62090;52.330;9.104;2023-02-04T16:34:26;103235.66;;;6.52;79.29
3132;BME280;62090;52.330;9.104;2023-02-04T16:36:56;103215.56;;;6.44;79.51
3132;BME280;62090;52.330;9.104;2023-02-04T16:39:29;103186.06;;;6.34;78.93
3132;BME280;62090;52.330;9.104;2023-02-04T16:41:58;103182.03;;;6.26;79.09
3132;BME280;62090;52.330;9.104;2023-02-04T16:44:30;103237.19;;;6.60;79.03
3132;BME280;62090;52.330;9.104;2023-02-04T16:47:00;103247.31;;;6.60;78.92
3132;BME280;62090;52.330;9.104;2023-02-04T16:49:30;103233.13;;;6.52;78.69
3132;BME280;62090;52.330;9.104;2023-02-04T16:52:00;103189.63;;;6.26;78.92
3132;BME280;62090;52.330;9.104;2023-02-04T16:54:33;103239.47;;;6.47;79.86
3132;BME280;62090;52.330;9.104;2023-02-04T16:57:03;103260.09;;;6.52;79.77
3132;BME280;62090;52.330;9.104;2023-02-04T16:59:33;103250.66;;;6.39;79.62
3132;BME280;62090;52.330;9.104;2023-02-04T17:02:03;103248.13;;;6.39;79.93
3132;BME280;62090;52.330;9.104;2023-02-04T17:04:33;103259.22;;;6.41;79.64
3132;BME280;62090;52.330;9.104;2023-02-04T17:07:03;103271.00;;;6.51;79.26
3132;BME280;62090;52.330;9.104;2023-02-04T17:09:35;103282.66;;;6.59;79.55
3132;BME280;62090;52.330;9.104;2023-02-04T17:12:06;103254.53;;;6.46;79.52
3132;BME280;62090;52.330;9.104;2023-02-04T17:14:35;103237.72;;;6.36;79.67
3132;BME280;62090;52.330;9.104;2023-02-04T17:17:06;103291.38;;;6.52;79.39
3132;BME280;62090;52.330;9.104;2023-02-04T17:19:36;103209.38;;;6.10;79.23
3132;BME280;62090;52.330;9.104;2023-02-04T17:22:06;103253.44;;;6.32;79.65
3132;BME280;62090;52.330;9.104;2023-02-04T17:24:38;103238.38;;;6.23;79.18
3132;BME280;62090;52.330;9.104;2023-02-04T17:27:09;103232.31;;;6.11;79.62
3132;BME280;62090;52.330;9.104;2023-02-04T17:29:39;103249.63;;;6.27;79.78
3132;BME280;62090;52.330;9.104;2023-02-04T17:32:08;103178.72;;;5.76;79.76
3132;BME280;62090;52.330;9.104;2023-02-04T17:34:38;103258.50;;;6.22;79.99
3132;BME280;62090;52.330;9.104;2023-02-04T17:37:08;103283.31;;;6.26;79.75
3132;BME280;62090;52.330;9.104;2023-02-04T17:39:40;103263.56;;;6.22;79.99
3132;BME280;62090;52.330;9.104;2023-02-04T17:42:10;103276.47;;;6.25;80.33
3132;BME280;62090;52.330;9.104;2023-02-04T17:44:40;103283.44;;;6.27;80.10
3132;BME280;62090;52.330;9.104;2023-02-04T17:47:09;103287.84;;;6.20;80.14
3132;BME280;62090;52.330;9.104;2023-02-04T17:49:39;103273.56;;;6.10;80.21
3132;BME280;62090;52.330;9.104;2023-02-04T17:52:09;103261.94;;;6.02;80.39
3132;BME280;62090;52.330;9.104;2023-02-04T17:54:41;103269.38;;;6.01;80.50
3132;BME280;62090;52.330;9.104;2023-02-04T17:57:16;103061.09;;;4.80;80.29
3132;BME280;62090;52.330;9.104;2023-02-04T17:59:47;103291.13;;;5.99;80.93
3132;BME280;62090;52.330;9.104;2023-02-04T18:02:24;103290.38;;;5.89;80.76
3132;BME280;62090;52.330;9.104;2023-02-04T18:04:59;103284.91;;;5.85;81.24
3132;BME280;62090;52.330;9.104;2023-02-04T18:07:29;103267.03;;;5.73;81.69
3132;BME280;62090;52.330;9.104;2023-02-04T18:10:15;103283.53;;;5.88;81.21
3132;BME280;62090;52.330;9.104;2023-02-04T18:12:45;103244.25;;;5.63;81.42
3132;BME280;62090;52.330;9.104;2023-02-04T18:15:23;103284.38;;;5.79;81.37
3132;BME280;62090;52.330;9.104;2023-02-04T18:17:59;103223.25;;;5.44;82.05
3132;BME280;62090;52.330;9.104;2023-02-04T18:20:31;103283.97;;;5.64;82.55
3132;BME280;62090;52.330;9.104;2023-02-04T18:23:01;103216.72;;;5.17;82.67
3132;BME280;62090;52.330;9.104;2023-02-04T18:25:34;103275.13;;;5.59;82.35
3132;BME280;62090;52.330;9.104;2023-02-04T18:28:12;103278.03;;;5.64;82.69
3132;BME280;62090;52.330;9.104;2023-02-04T18:30:43;103200.16;;;5.21;82.57
3132;BME280;62090;52.330;9.104;2023-02-04T18:33:17;103265.75;;;5.58;81.93
3132;BME280;62090;52.330;9.104;2023-02-04T18:35:47;103267.63;;;5.50;81.88
3132;BME280;62090;52.330;9.104;2023-02-04T18:38:23;103286.88;;;5.59;82.42
3132;BME280;62090;52.330;9.104;2023-02-04T18:41:01;103267.97;;;5.45;83.04
3132;BME280;62090;52.330;9.104;2023-02-04T18:43:35;103284.72;;;5.63;82.98
3132;BME280;62090;52.330;9.104;2023-02-04T18:46:19;103259.13;;;5.50;82.27
3132;BME280;62090;52.330;9.104;2023-02-04T18:49:24;103264.84;;;5.47;82.20
3132;BME280;62090;52.330;9.104;2023-02-04T18:51:55;103279.88;;;5.46;82.62
3132;BME280;62090;52.330;9.104;2023-02-04T18:54:33;103292.25;;;5.43;83.63
3132;BME280;62090;52.330;9.104;2023-02-04T18:57:22;103295.28;;;5.39;83.64
3132;BME280;62090;52.330;9.104;2023-02-04T19:00:20;103305.63;;;5.32;82.64
3132;BME280;62090;52.330;9.104;2023-02-04T19:02:54;103300.66;;;5.23;84.12
3132;BME280;62090;52.330;9.104;2023-02-04T19:05:28;103242.75;;;4.87;85.48
3132;BME280;62090;52.330;9.104;2023-02-04T19:08:23;103249.56;;;4.88;85.23
3132;BME280;62090;52.330;9.104;2023-02-04T19:10:54;103198.16;;;4.59;85.87
3132;BME280;62090;52.330;9.104;2023-02-04T19:13:36;103308.13;;;5.22;86.29
3132;BME280;62090;52.330;9.104;2023-02-04T19:16:16;103311.91;;;5.27;85.41
3132;BME280;62090;52.330;9.104;2023-02-04T19:18:49;103249.03;;;4.82;86.17
3132;BME280;62090;52.330;9.104;2023-02-04T19:21:23;103292.75;;;5.10;85.98
3132;BME280;62090;52.330;9.104;2023-02-04T19:23:57;103288.75;;;5.12;86.10
3132;BME280;62090;52.330;9.104;2023-02-04T19:26:32;103321.63;;;5.22;86.40
3132;BME280;62090;52.330;9.104;2023-02-04T19:29:35;103303.22;;;5.04;86.43
3132;BME280;62090;52.330;9.104;2023-02-04T19:32:34;103303.38;;;5.06;86.48
3132;BME280;62090;52.330;9.104;2023-02-04T19:35:17;103319.47;;;5.17;86.73
3132;BME280;62090;52.330;9.104;2023-02-04T19:37:52;103289.84;;;5.05;86.59
3132;BME280;62090;52.330;9.104;2023-02-04T19:40:26;103306.88;;;5.27;86.64
3132;BME280;62090;52.330;9.104;2023-02-04T19:43:15;103268.94;;;4.98;85.58
3132;BME280;62090;52.330;9.104;2023-02-04T19:45:50;103269.56;;;4.95;85.91
3132;BME280;62090;52.330;9.104;2023-02-04T19:48:26;103324.41;;;5.25;86.29
3132;BME280;62090;52.330;9.104;2023-02-04T19:51:14;103308.25;;;5.23;85.70
3132;BME280;62090;52.330;9.104;2023-02-04T19:53:47;103298.75;;;5.21;85.41
3132;BME280;62090;52.330;9.104;2023-02-04T19:56:35;103306.53;;;5.42;84.41
3132;BME280;62090;52.330;9.104;2023-02-04T19:59:22;103269.31;;;5.21;83.72
3132;BME280;62090;52.330;9.104;2023-02-04T20:01:59;103294.50;;;5.40;82.68
3132;BME280;62090;52.330;9.104;2023-02-04T20:04:39;103315.56;;;5.49;82.59
3132;BME280;62090;52.330;9.104;2023-02-04T20:07:16;103314.66;;;5.48;82.59
3132;BME280;62090;52.330;9.104;2023-02-04T20:09:47;103305.13;;;5.36;83.13
3132;BME280;62090;52.330;9.104;2023-02-04T20:12:20;103314.53;;;5.47;82.32
3132;BME280;62090;52.330;9.104;2023-02-04T20:14:53;103298.69;;;5.39;82.40
3132;BME280;62090;52.330;9.104;2023-02-04T20:17:34;103300.75;;;5.43;83.00
3132;BME280;62090;52.330;9.104;2023-02-04T20:20:25;103307.16;;;5.40;82.69
3132;BME280;62090;52.330;9.104;2023-02-04T20:22:57;103277.63;;;5.20;82.43
3132;BME280;62090;52.330;9.104;2023-02-04T20:25:38;103277.25;;;5.16;81.86
3132;BME280;62090;52.330;9.104;2023-02-04T20:28:36;103307.88;;;5.29;82.39
3132;BME280;62090;52.330;9.104;2023-02-04T20:31:21;103302.41;;;5.24;82.01
3132;BME280;62090;52.330;9.104;2023-02-04T20:33:56;103254.47;;;4.87;81.69
3132;BME280;62090;52.330;9.104;2023-02-04T20:36:32;103299.44;;;5.09;81.67
3132;BME280;62090;52.330;9.104;2023-02-04T20:39:29;103271.97;;;4.94;81.46
3132;BME280;62090;52.330;9.104;2023-02-04T20:42:22;103281.31;;;4.95;81.91
3132;BME280;62090;52.330;9.104;2023-02-04T20:44:53;103280.97;;;5.00;82.60
3132;BME280;62090;52.330;9.104;2023-02-04T20:47:24;103267.03;;;4.95;81.86
3132;BME280;62090;52.330;9.104;2023-02-04T20:49:57;103301.91;;;5.18;81.45
3132;BME280;62090;52.330;9.104;2023-02-04T20:53:01;103301.13;;;5.19;79.94
3132;BME280;62090;52.330;9.104;2023-02-04T20:55:34;103250.31;;;4.87;80.59
3132;BME280;62090;52.330;9.104;2023-02-04T20:58:14;103135.19;;;4.23;81.36
3132;BME280;62090;52.330;9.104;2023-02-04T21:00:45;103238.38;;;4.76;80.44
3132;BME280;62090;52.330;9.104;2023-02-04T21:03:21;103302.50;;;5.16;80.67
3132;BME280;62090;52.330;9.104;2023-02-04T21:05:56;103209.59;;;4.74;80.34
3132;BME280;62090;52.330;9.104;2023-02-04T21:08:36;103265.59;;;5.07;80.27
3132;BME280;62090;52.330;9.104;2023-02-04T21:11:09;103275.56;;;5.06;80.26
3132;BME280;62090;52.330;9.104;2023-02-04T21:13:39;103066.81;;;3.91;80.80
3132;BME280;62090;52.330;9.104;2023-02-04T21:16:09;103257.94;;;4.97;81.23
3132;BME280;62090;52.330;9.104;2023-02-04T21:18:39;103232.88;;;4.80;80.37
3132;BME280;62090;52.330;9.104;2023-02-04T21:21:12;103154.34;;;4.40;81.36
3132;BME280;62090;52.330;9.104;2023-02-04T21:23:42;103229.72;;;4.83;80.37
3132;BME280;62090;52.330;9.104;2023-02-04T21:26:12;103237.03;;;4.80;80.74
3132;BME280;62090;52.330;9.104;2023-02-04T21:28:42;103255.69;;;5.00;80.22
3132;BME280;62090;52.330;9.104;2023-02-04T21:31:12;103248.28;;;4.83;80.78
3132;BME280;62090;52.330;9.104;2023-02-04T21:33:44;103208.59;;;4.53;80.61
3132;BME280;62090;52.330;9.104;2023-02-04T21:36:17;103296.03;;;4.80;81.23
3132;BME280;62090;52.330;9.104;2023-02-04T21:38:53;103013.38;;;3.20;81.43
3132;BME280;62090;52.330;9.104;2023-02-04T21:41:23;103311.97;;;4.71;82.21
3132;BME280;62090;52.330;9.104;2023-02-04T21:43:54;103215.63;;;4.10;82.32
3132;BME280;62090;52.330;9.104;2023-02-04T21:46:25;103264.84;;;4.42;82.87
3132;BME280;62090;52.330;9.104;2023-02-04T21:48:55;103245.97;;;4.01;82.44
3132;BME280;62090;52.330;9.104;2023-02-04T21:51:28;103103.91;;;3.46;83.17
3132;BME280;62090;52.330;9.104;2023-02-04T21:54:00;102903.03;;;2.07;83.16
3132;BME280;62090;52.330;9.104;2023-02-04T21:56:31;103062.81;;;3.01;83.77
3132;BME280;62090;52.330;9.104;2023-02-04T21:59:01;103183.94;;;3.76;83.27
3132;BME280;62090;52.330;9.104;2023-02-04T22:01:31;103065.63;;;3.04;83.58
3132;BME280;62090;52.330;9.104;2023-02-04T22:04:04;103065.09;;;2.89;83.27
3132;BME280;62090;52.330;9.104;2023-02-04T22:06:37;103244.28;;;4.10;83.28
3132;BME280;62090;52.330;9.104;2023-02-04T22:09:06;103271.28;;;4.11;83.31
3132;BME280;62090;52.330;9.104;2023-02-04T22:11:39;103274.56;;;4.10;83.38
3132;BME280;62090;52.330;9.104;2023-02-04T22:14:09;103085.28;;;3.17;82.67
3132;BME280;62090;52.330;9.104;2023-02-04T22:16:42;103233.38;;;4.01;83.31
3132;BME280;62090;52.330;9.104;2023-02-04T22:19:12;103222.97;;;3.98;83.13
3132;BME280;62090;52.330;9.104;2023-02-04T22:21:45;103255.84;;;4.08;82.86
3132;BME280;62090;52.330;9.104;2023-02-04T22:24:14;103261.38;;;3.77;84.25
3132;BME280;62090;52.330;9.104;2023-02-04T22:26:44;103263.09;;;3.87;82.38
3132;BME280;62090;52.330;9.104;2023-02-04T22:29:16;103219.84;;;3.46;84.80
3132;BME280;62090;52.330;9.104;2023-02-04T22:31:49;103260.22;;;3.73;82.79
3132;BME280;62090;52.330;9.104;2023-02-04T22:34:18;103255.31;;;3.75;85.04
3132;BME280;62090;52.330;9.104;2023-02-04T22:36:51;103231.75;;;3.66;85.36
3132;BME280;62090;52.330;9.104;2023-02-04T22:39:21;103241.75;;;3.83;85.14
3132;BME280;62090;52.330;9.104;2023-02-04T22:41:51;103074.19;;;2.70;85.11
3132;BME280;62090;52.330;9.104;2023-02-04T22:44:21;103164.34;;;3.27;84.60
3132;BME280;62090;52.330;9.104;2023-02-04T22:46:50;103180.22;;;3.26;85.00
3132;BME280;62090;52.330;9.104;2023-02-04T22:49:20;103256.13;;;3.57;85.38
3132;BME280;62090;52.330;9.104;2023-02-04T22:51:52;103234.34;;;3.57;84.65
3132;BME280;62090;52.330;9.104;2023-02-04T22:54:22;103233.63;;;3.50;84.85
3132;BME280;62090;52.330;9.104;2023-02-04T22:56:52;103255.19;;;3.65;84.96
3132;BME280;62090;52.330;9.104;2023-02-04T22:59:23;103205.78;;;3.39;85.38
3132;BME280;62090;52.330;9.104;2023-02-04T23:01:53;103201.63;;;3.40;85.92
3132;BME280;62090;52.330;9.104;2023-02-04T23:04:23;103160.97;;;3.18;85.44
3132;BME280;62090;52.330;9.104;2023-02-04T23:06:55;103196.91;;;3.43;85.56
3132;BME280;62090;52.330;9.104;2023-02-04T23:09:29;103238.91;;;3.61;85.58
3132;BME280;62090;52.330;9.104;2023-02-04T23:11:59;103223.00;;;3.44;86.16
3132;BME280;62090;52.330;9.104;2023-02-04T23:14:39;103217.06;;;3.43;86.37
3132;BME280;62090;52.330;9.104;2023-02-04T23:17:09;103203.72;;;3.35;86.88
3132;BME280;62090;52.330;9.104;2023-02-04T23:19:39;103213.97;;;3.28;86.88
3132;BME280;62090;52.330;9.104;2023-02-04T23:22:12;103238.97;;;3.44;85.87
3132;BME280;62090;52.330;9.104;2023-02-04T23:24:42;103139.59;;;2.87;85.24
3132;BME280;62090;52.330;9.104;2023-02-04T23:27:12;103187.81;;;3.09;86.78
3132;BME280;62090;52.330;9.104;2023-02-04T23:29:42;103228.97;;;3.27;86.85
3132;BME280;62090;52.330;9.104;2023-02-04T23:32:12;103221.44;;;3.18;86.91
3132;BME280;62090;52.330;9.104;2023-02-04T23:34:42;103127.50;;;2.66;86.71
3132;BME280;62090;52.330;9.104;2023-02-04T23:37:14;103217.28;;;3.27;86.50
3132;BME280;62090;52.330;9.104;2023-02-04T23:39:43;103130.47;;;2.71;87.07
3132;BME280;62090;52.330;9.104;2023-02-04T23:42:15;103026.38;;;2.17;86.94
3132;BME280;62090;52.330;9.104;2023-02-04T23:44:45;103185.25;;;3.18;87.28
3132;BME280;62090;52.330;9.104;2023-02-04T23:47:15;103216.75;;;3.49;86.69
3132;BME280;62090;52.330;9.104;2023-02-04T23:49:45;103180.16;;;3.44;85.99
3132;BME280;62090;52.330;9.104;2023-02-04T23:52:17;103205.06;;;3.68;85.54
3132;BME280;62090;52.330;9.104;2023-02-04T23:54:47;103178.31;;;3.51;85.10
3132;BME280;62090;52.330;9.104;2023-02-04T23:57:16;103205.22;;;3.69;85.12
3132;BME280;62090;52.330;9.104;2023-02-04T23:59:46;103183.50;;;3.53;84.87
